Time;durP1;ratioP1;P1;durP2;ratioP2;P2;SDS_P1;SDS_P2;PMS_P1;PMS_P2;Temp;Humidity;BMP_temperature;BMP_pressure;BME280_temperature;BME280_humidity;BME280_pressure;Samples;Min_cycle;Max_cycle;Signal;HPM_P1;HPM_P2
2022/08/25 00:01:46;;;;;;;13.55;11.27;;;;;;;20.58;100.00;101619.88;4973083;28;20050;-73
2022/08/25 00:04:14;;;;;;;17.05;11.52;;;;;;;20.62;100.00;101617.72;4950524;28;20039;-72
2022/08/25 00:06:42;;;;;;;18.65;11.65;;;;;;;20.57;100.00;101620.00;4972061;28;20050;-73
2022/08/25 00:09:10;;;;;;;16.65;11.07;;;;;;;20.58;100.00;101622.59;4970930;28;20063;-73
2022/08/25 00:11:40;;;;;;;16.60;10.95;;;;;;;20.58;100.00;101624.41;4966393;28;20046;-73
2022/08/25 00:14:09;;;;;;;13.18;11.38;;;;;;;20.50;100.00;101630.56;4957393;28;20042;-73
2022/08/25 00:16:35;;;;;;;18.90;11.63;;;;;;;20.40;100.00;101619.69;4959081;28;20069;-73
2022/08/25 00:19:10;;;;;;;15.23;11.23;;;;;;;20.58;100.00;101629.84;4974911;28;20039;-73
2022/08/25 00:21:35;;;;;;;16.83;11.60;;;;;;;20.65;100.00;101621.00;4961601;28;20862;-73
2022/08/25 00:24:01;;;;;;;17.77;11.60;;;;;;;20.56;100.00;101624.56;4964660;28;20045;-73
2022/08/25 00:26:28;;;;;;;17.48;11.40;;;;;;;20.59;100.00;101621.59;4967078;28;20038;-73
2022/08/25 00:28:55;;;;;;;15.30;10.63;;;;;;;20.39;100.00;101626.09;4968424;28;20038;-72
2022/08/25 00:31:22;;;;;;;18.88;11.90;;;;;;;20.33;100.00;101623.97;4961152;28;20666;-73
2022/08/25 00:33:49;;;;;;;13.63;10.95;;;;;;;20.32;100.00;101618.69;4975731;28;20035;-73
2022/08/25 00:36:15;;;;;;;15.57;11.30;;;;;;;20.38;100.00;101615.38;4960770;28;20039;-73
2022/08/25 00:38:42;;;;;;;20.95;11.82;;;;;;;20.44;100.00;101622.97;4962525;28;20039;-73
2022/08/25 00:41:10;;;;;;;14.45;11.32;;;;;;;20.36;100.00;101622.81;4960292;28;20078;-73
2022/08/25 00:44:08;;;;;;;14.95;10.98;;;;;;;20.26;100.00;101627.38;4958389;28;20046;-72
2022/08/25 00:46:42;;;;;;;13.00;10.15;;;;;;;20.36;100.00;101620.97;4934405;28;20065;-73
2022/08/25 00:49:32;;;;;;;16.13;11.63;;;;;;;20.29;100.00;101624.41;4960039;28;20047;-72
2022/08/25 00:52:00;;;;;;;14.13;10.35;;;;;;;20.27;100.00;101619.09;4961225;28;20047;-74
2022/08/25 00:54:38;;;;;;;15.90;11.65;;;;;;;20.13;100.00;101628.50;4957936;28;20082;-72
2022/08/25 00:57:07;;;;;;;15.70;11.00;;;;;;;20.02;100.00;101628.59;4952554;28;20115;-73
2022/08/25 00:59:35;;;;;;;13.30;11.27;;;;;;;19.95;100.00;101632.03;4947863;28;20475;-73
2022/08/25 01:02:05;;;;;;;14.45;11.38;;;;;;;20.14;100.00;101626.66;4946885;28;20035;-73
2022/08/25 01:04:31;;;;;;;13.65;10.43;;;;;;;20.18;100.00;101630.78;4952140;28;20086;-72
2022/08/25 01:07:02;;;;;;;16.27;11.05;;;;;;;20.21;100.00;101633.22;4944487;28;20599;-73
2022/08/25 01:09:31;;;;;;;13.48;10.23;;;;;;;20.05;100.00;101628.34;4954276;28;20039;-73
2022/08/25 01:11:58;;;;;;;14.07;10.55;;;;;;;20.02;100.00;101633.16;4950683;28;20170;-72
2022/08/25 01:14:25;;;;;;;15.93;10.93;;;;;;;20.13;100.00;101627.63;4959685;28;20043;-72
2022/08/25 01:16:54;;;;;;;14.65;10.07;;;;;;;20.22;100.00;101632.22;4947099;28;20063;-72
2022/08/25 01:19:25;;;;;;;13.98;10.70;;;;;;;19.95;100.00;101630.19;4951652;28;20047;-73
2022/08/25 01:21:52;;;;;;;15.88;10.82;;;;;;;19.99;100.00;101628.91;4950665;28;20440;-72
2022/08/25 01:24:37;;;;;;;17.55;11.60;;;;;;;19.79;100.00;101627.16;4948044;28;20075;-73
2022/08/25 01:27:09;;;;;;;15.10;11.75;;;;;;;19.68;100.00;101628.13;4937102;28;20137;-73
2022/08/25 01:29:36;;;;;;;18.17;12.60;;;;;;;19.53;100.00;101629.41;4941019;28;20039;-73
2022/08/25 01:32:07;;;;;;;12.50;10.90;;;;;;;19.60;100.00;101628.78;4954750;28;20063;-72
2022/08/25 01:34:36;;;;;;;19.30;11.35;;;;;;;19.45;100.00;101632.81;4952387;28;20207;-74
2022/08/25 01:37:02;;;;;;;12.65;10.63;;;;;;;19.25;100.00;101634.56;4955702;28;20137;-72
2022/08/25 01:39:29;;;;;;;16.23;11.63;;;;;;;19.09;100.00;101629.63;4946822;28;20395;-73
2022/08/25 01:42:10;;;;;;;17.27;11.95;;;;;;;19.26;100.00;101630.84;4953646;28;20120;-73
2022/08/25 01:44:43;;;;;;;17.00;12.75;;;;;;;19.34;100.00;101625.66;4949737;28;20150;-73
2022/08/25 01:47:12;;;;;;;15.68;12.35;;;;;;;19.34;100.00;101622.09;4952798;28;20050;-73
2022/08/25 01:49:38;;;;;;;13.27;11.32;;;;;;;19.28;100.00;101619.94;4945884;28;20548;-74
2022/08/25 01:52:16;;;;;;;16.00;11.45;;;;;;;19.18;100.00;101622.59;4951972;28;20030;-73
2022/08/25 01:54:42;;;;;;;18.05;11.13;;;;;;;19.19;100.00;101624.28;4959867;28;20597;-72
2022/08/25 01:57:08;;;;;;;13.07;10.57;;;;;;;19.25;100.00;101621.03;4947703;28;20039;-72
2022/08/25 01:59:34;;;;;;;18.80;12.00;;;;;;;19.25;100.00;101618.34;4951886;28;20035;-72
2022/08/25 02:02:02;;;;;;;12.90;10.35;;;;;;;19.44;100.00;101624.84;4951442;28;20043;-73
2022/08/25 02:04:30;;;;;;;16.40;10.55;;;;;;;19.38;100.00;101627.09;4952248;28;20304;-74
2022/08/25 02:06:57;;;;;;;13.63;10.20;;;;;;;19.17;100.00;101620.84;4946711;28;20043;-73
2022/08/25 02:09:23;;;;;;;12.32;10.15;;;;;;;19.26;100.00;101630.00;4959830;28;20505;-73
2022/08/25 02:11:49;;;;;;;13.85;9.02;;;;;;;19.44;96.65;101616.72;4954833;28;20038;-72
2022/08/25 02:14:16;;;;;;;12.55;9.68;;;;;;;19.31;100.00;101625.06;4939427;29;20182;-72
2022/08/25 02:16:48;;;;;;;12.70;7.68;;;;;;;19.53;95.11;101627.59;4946425;28;20050;-74
2022/08/25 02:19:16;;;;;;;10.23;7.43;;;;;;;19.57;94.79;101630.84;4951295;28;20102;-72
2022/08/25 02:21:41;;;;;;;11.27;7.00;;;;;;;19.67;93.52;101616.41;4947099;28;20039;-73
2022/08/25 02:24:08;;;;;;;7.18;6.22;;;;;;;19.83;87.84;101618.63;4953923;28;20085;-73
2022/08/25 02:26:37;;;;;;;10.75;6.07;;;;;;;20.05;85.71;101622.06;4955628;28;20042;-72
2022/08/25 02:29:06;;;;;;;12.07;6.13;;;;;;;20.02;86.28;101622.34;4948121;28;20938;-73
2022/08/25 02:31:35;;;;;;;14.40;5.57;;;;;;;20.12;84.33;101628.63;4952313;28;20046;-73
2022/08/25 02:34:03;;;;;;;9.82;6.10;;;;;;;20.22;83.51;101624.06;4951178;28;20201;-73
2022/08/25 02:36:32;;;;;;;15.88;6.45;;;;;;;20.28;82.82;101618.13;4959780;28;20121;-73
2022/08/25 02:39:07;;;;;;;10.45;6.38;;;;;;;20.24;83.49;101626.66;4956969;28;20054;-72
2022/08/25 02:41:37;;;;;;;9.90;5.80;;;;;;;20.16;84.16;101617.38;4952492;28;20396;-72
2022/08/25 02:44:07;;;;;;;8.57;5.40;;;;;;;20.18;83.21;101618.13;4949576;28;20814;-73
2022/08/25 02:46:34;;;;;;;7.93;4.97;;;;;;;20.15;83.53;101617.53;4954045;28;20100;-72
2022/08/25 02:49:04;;;;;;;9.43;5.63;;;;;;;20.14;83.57;101619.38;4952211;28;20039;-72
2022/08/25 02:51:30;;;;;;;10.45;6.07;;;;;;;20.31;81.18;101615.13;4963364;28;20034;-72
2022/08/25 02:53:58;;;;;;;8.30;4.95;;;;;;;20.25;81.67;101617.53;4955479;28;20072;-72
2022/08/25 02:56:24;;;;;;;8.15;5.47;;;;;;;20.06;84.28;101618.38;4952982;28;20061;-72
2022/08/25 02:58:50;;;;;;;11.60;5.47;;;;;;;20.17;82.40;101612.81;4947531;28;20122;-74
2022/08/25 03:01:16;;;;;;;7.70;5.78;;;;;;;20.17;81.60;101599.28;4956397;28;20075;-72
2022/08/25 03:03:46;;;;;;;11.63;5.50;;;;;;;20.22;80.82;101598.84;4955096;28;20043;-72
2022/08/25 03:06:15;;;;;;;7.53;6.18;;;;;;;20.16;81.11;101590.28;4962578;28;20045;-72
2022/08/25 03:08:42;;;;;;;7.97;5.78;;;;;;;20.13;81.37;101598.72;4953581;28;20034;-72
2022/08/25 03:11:08;;;;;;;13.60;5.50;;;;;;;20.25;79.48;101588.59;4948481;28;20043;-74
2022/08/25 03:13:35;;;;;;;5.90;5.30;;;;;;;20.14;81.92;101589.59;4958877;28;20092;-72
2022/08/25 03:16:02;;;;;;;8.13;5.43;;;;;;;20.09;81.10;101588.31;4986259;23;20057;-70
2022/08/25 03:18:28;;;;;;;10.15;5.85;;;;;;;20.07;81.65;101593.84;4968983;28;20380;-71
2022/08/25 03:20:53;;;;;;;8.45;5.75;;;;;;;20.08;80.57;101595.59;4985254;28;20042;-70
2022/08/25 03:23:19;;;;;;;8.18;6.07;;;;;;;19.99;81.78;101588.28;4970313;28;20117;-70
2022/08/25 03:28:31;;;;;;;9.15;5.70;;;;;;;20.19;79.51;101575.63;4961775;28;20038;-70
2022/08/25 03:31:00;;;;;;;7.13;5.72;;;;;;;20.24;79.56;101584.19;4969762;28;20120;-70
2022/08/25 03:33:28;;;;;;;8.77;5.35;;;;;;;20.12;80.26;101580.75;4970088;28;20566;-70
2022/08/25 03:35:54;;;;;;;9.95;5.72;;;;;;;20.24;79.61;101581.47;4970188;28;20042;-70
2022/08/25 03:38:20;;;;;;;9.80;5.78;;;;;;;20.27;79.06;101577.63;4969053;28;20050;-70
2022/08/25 03:40:45;;;;;;;10.48;5.45;;;;;;;20.27;79.24;101583.03;4968436;28;20047;-70
2022/08/25 03:43:12;;;;;;;9.88;5.13;;;;;;;20.28;78.30;101579.31;4964674;28;20163;-70
2022/08/25 03:45:42;;;;;;;8.77;5.95;;;;;;;20.30;78.23;101580.06;4961124;28;20556;-70
2022/08/25 03:48:07;;;;;;;7.38;5.13;;;;;;;20.15;80.19;101575.06;4965272;28;20152;-70
2022/08/25 03:50:33;;;;;;;10.98;5.80;;;;;;;20.20;80.46;101573.78;4966541;28;20040;-70
2022/08/25 03:52:58;;;;;;;6.55;5.07;;;;;;;20.13;79.69;101568.94;4966093;28;20129;-70
2022/08/25 03:55:24;;;;;;;12.07;5.82;;;;;;;20.06;79.93;101566.91;4965951;28;20140;-69
2022/08/25 03:57:51;;;;;;;8.43;5.68;;;;;;;20.03;79.96;101564.47;4965299;28;20145;-70
2022/08/25 04:00:17;;;;;;;12.73;6.05;;;;;;;19.88;82.21;101555.91;4965988;28;20046;-70
2022/08/25 04:02:42;;;;;;;16.48;5.88;;;;;;;19.90;80.30;101559.34;4969962;28;20030;-70
2022/08/25 04:05:08;;;;;;;8.85;5.63;;;;;;;19.89;80.30;101550.38;4968887;28;20042;-70
2022/08/25 04:07:34;;;;;;;6.13;5.13;;;;;;;19.91;79.80;101551.06;4960918;28;20034;-70
2022/08/25 04:09:59;;;;;;;11.82;6.05;;;;;;;19.88;80.05;101554.09;4969421;28;20034;-70
2022/08/25 04:12:24;;;;;;;10.85;6.25;;;;;;;19.79;80.78;101557.63;4969460;28;20039;-70
2022/08/25 04:14:50;;;;;;;10.90;5.78;;;;;;;19.81;80.09;101558.31;4970499;28;20042;-69
2022/08/25 04:17:16;;;;;;;10.60;5.93;;;;;;;19.90;79.60;101546.66;4969576;28;20042;-70
2022/08/25 04:19:42;;;;;;;17.60;6.28;;;;;;;19.78;80.99;101555.91;4970276;28;20805;-70
2022/08/25 04:22:07;;;;;;;10.73;5.50;;;;;;;19.76;80.27;101557.03;4967803;28;20053;-70
2022/08/25 04:24:33;;;;;;;8.48;5.63;;;;;;;19.77;80.14;101547.91;4969615;28;20058;-70
2022/08/25 04:26:59;;;;;;;14.15;5.63;;;;;;;19.75;80.96;101560.75;4961347;28;20046;-70
2022/08/25 04:29:25;;;;;;;8.95;6.00;;;;;;;19.63;81.18;101555.47;4967267;28;20072;-70
2022/08/25 04:31:52;;;;;;;10.90;5.95;;;;;;;19.54;82.21;101555.41;4969376;28;20038;-70
2022/08/25 04:34:21;;;;;;;10.82;7.43;;;;;;;19.53;82.15;101550.94;4955380;28;20038;-70
2022/08/25 04:36:49;;;;;;;9.82;5.72;;;;;;;19.59;81.46;101547.72;4968033;28;20722;-70
2022/08/25 04:39:14;;;;;;;9.38;6.13;;;;;;;19.64;80.73;101545.47;4968329;28;20121;-70
2022/08/25 04:41:40;;;;;;;11.93;5.55;;;;;;;19.51;81.88;101552.94;4967639;28;20046;-70
2022/08/25 04:44:05;;;;;;;8.63;5.82;;;;;;;19.55;81.89;101549.84;4968568;28;20042;-69
2022/08/25 04:46:33;;;;;;;9.95;5.32;;;;;;;19.51;81.91;101551.09;4966577;28;20034;-70
2022/08/25 04:49:00;;;;;;;6.80;5.38;;;;;;;19.55;81.86;101547.13;4968237;28;20738;-70
2022/08/25 04:51:38;;;;;;;9.95;5.45;;;;;;;19.61;80.96;101553.88;4967389;28;20042;-70
2022/08/25 04:54:07;;;;;;;9.07;6.05;;;;;;;19.54;81.79;101552.69;4963389;28;20061;-70
2022/08/25 04:56:34;;;;;;;10.43;5.50;;;;;;;19.54;82.15;101553.53;4963336;28;20063;-70
2022/08/25 04:59:07;;;;;;;7.75;5.57;;;;;;;19.57;81.07;101549.69;4965918;28;20049;-70
2022/08/25 05:01:33;;;;;;;10.60;5.50;;;;;;;19.70;80.18;101546.78;4962236;28;20105;-70
2022/08/25 05:04:01;;;;;;;12.88;5.82;;;;;;;19.75;79.61;101549.91;4966438;28;20038;-70
2022/08/25 05:06:28;;;;;;;7.68;5.15;;;;;;;19.82;78.09;101551.91;4968757;28;20046;-70
2022/08/25 05:08:55;;;;;;;8.38;5.28;;;;;;;19.78;79.31;101550.50;4968010;28;20293;-69
2022/08/25 05:11:22;;;;;;;7.50;5.30;;;;;;;19.80;79.71;101548.50;4955208;28;20050;-70
2022/08/25 05:13:50;;;;;;;13.82;5.78;;;;;;;19.96;78.00;101547.09;4960390;28;20034;-70
2022/08/25 05:16:16;;;;;;;8.45;5.15;;;;;;;19.99;78.93;101552.25;4957799;28;20042;-70
2022/08/25 05:18:43;;;;;;;17.88;5.85;;;;;;;20.04;77.17;101553.53;4961565;28;20042;-70
2022/08/25 05:21:15;;;;;;;14.18;5.60;;;;;;;19.96;79.33;101547.94;4967988;28;20448;-70
2022/08/25 05:23:41;;;;;;;7.45;5.38;;;;;;;20.10;76.88;101552.97;4967800;28;20145;-70
2022/08/25 05:26:10;;;;;;;8.60;5.63;;;;;;;20.14;76.61;101550.81;4967141;28;20046;-70
2022/08/25 05:28:39;;;;;;;11.40;6.82;;;;;;;20.20;76.52;101547.53;4967157;28;20046;-69
2022/08/25 05:31:07;;;;;;;8.40;6.00;;;;;;;20.25;76.89;101549.81;4976075;28;20129;-70
2022/08/25 05:33:33;;;;;;;10.00;4.70;;;;;;;20.23;77.50;101549.09;4967930;28;20065;-69
2022/08/25 05:35:59;;;;;;;13.60;5.65;;;;;;;20.31;75.64;101555.53;4966576;28;20041;-69
2022/08/25 05:38:25;;;;;;;7.03;5.07;;;;;;;20.31;76.51;101554.66;4968179;28;20038;-70
2022/08/25 05:40:55;;;;;;;6.78;5.13;;;;;;;20.42;75.33;101547.22;4966670;28;20045;-69
2022/08/25 05:43:21;;;;;;;11.30;6.10;;;;;;;20.45;75.96;101548.81;4967056;28;20136;-69
2022/08/25 05:45:46;;;;;;;12.70;5.28;;;;;;;20.41;75.82;101547.38;4965490;28;20050;-69
2022/08/25 05:48:12;;;;;;;7.07;5.22;;;;;;;20.54;74.59;101549.84;4965504;28;20039;-70
2022/08/25 05:50:37;;;;;;;11.52;6.47;;;;;;;20.55;75.12;101551.56;4968611;28;20940;-69
2022/08/25 05:53:02;;;;;;;12.27;5.47;;;;;;;20.68;74.06;101549.38;4967055;28;20503;-70
2022/08/25 05:55:28;;;;;;;9.02;5.05;;;;;;;20.69;74.10;101551.97;4966162;28;20049;-70
2022/08/25 05:57:54;;;;;;;7.55;5.03;;;;;;;20.82;72.75;101550.78;4965220;28;20033;-69
2022/08/25 06:00:19;;;;;;;8.13;5.15;;;;;;;20.83;72.82;101558.75;4966649;28;20045;-70
2022/08/25 06:02:47;;;;;;;9.60;6.03;;;;;;;21.04;72.33;101555.00;4963817;28;20054;-71
2022/08/25 06:05:16;;;;;;;8.68;5.43;;;;;;;21.11;71.55;101564.25;4967044;28;20077;-70
2022/08/25 06:07:42;;;;;;;7.50;5.32;;;;;;;21.17;72.34;101564.50;4966881;28;20039;-70
2022/08/25 06:10:12;;;;;;;10.60;5.68;;;;;;;21.34;71.56;101567.50;4966008;28;20042;-70
2022/08/25 06:12:39;;;;;;;9.73;6.45;;;;;;;21.48;71.15;101560.69;4963559;28;20042;-70
2022/08/25 06:15:06;;;;;;;10.15;5.43;;;;;;;21.64;70.27;101569.91;4965484;28;20156;-70
2022/08/25 06:17:33;;;;;;;6.57;5.25;;;;;;;21.76;69.23;101573.25;4962451;28;20046;-70
2022/08/25 06:19:59;;;;;;;9.55;5.72;;;;;;;21.98;70.27;101561.94;4969160;28;20038;-70
2022/08/25 06:22:24;;;;;;;13.32;5.50;;;;;;;22.28;68.25;101564.47;4970168;28;20144;-70
2022/08/25 06:24:50;;;;;;;11.65;5.68;;;;;;;22.32;68.41;101568.59;4967548;28;20037;-70
2022/08/25 06:27:16;;;;;;;10.73;6.10;;;;;;;22.61;67.54;101571.91;4970510;28;20037;-70
2022/08/25 06:29:42;;;;;;;8.32;5.32;;;;;;;22.69;67.84;101565.66;4975485;28;20391;-70
2022/08/25 06:32:07;;;;;;;10.73;5.40;;;;;;;22.77;67.80;101571.16;4972158;28;20030;-70
2022/08/25 06:34:33;;;;;;;10.07;5.60;;;;;;;22.87;67.53;101565.63;4966444;28;20046;-71
2022/08/25 06:36:58;;;;;;;20.85;6.72;;;;;;;23.21;66.57;101566.56;4971992;28;20746;-70
2022/08/25 06:39:24;;;;;;;13.05;5.53;;;;;;;23.49;64.69;101559.03;4971561;28;20038;-70
2022/08/25 06:41:51;;;;;;;11.93;5.72;;;;;;;23.98;63.06;101561.06;4966914;28;20030;-70
2022/08/25 06:44:17;;;;;;;7.05;4.97;;;;;;;24.23;60.65;101543.72;4970828;28;20038;-70
2022/08/25 06:46:42;;;;;;;10.70;5.47;;;;;;;24.76;60.34;101552.44;4970290;28;20814;-71
2022/08/25 06:49:08;;;;;;;12.85;4.82;;;;;;;25.28;63.00;101561.03;4971113;28;20030;-70
2022/08/25 06:51:36;;;;;;;10.23;5.72;;;;;;;25.02;59.26;101566.72;4971406;28;20038;-70
2022/08/25 06:54:03;;;;;;;11.20;5.90;;;;;;;25.05;58.09;101563.66;4963126;28;20832;-71
2022/08/25 06:56:29;;;;;;;8.60;4.35;;;;;;;25.58;55.83;101558.53;4970861;28;20035;-71
2022/08/25 06:58:54;;;;;;;6.70;4.97;;;;;;;25.47;55.71;101565.25;4970382;28;20093;-70
2022/08/25 07:01:24;;;;;;;10.13;5.38;;;;;;;25.88;56.21;101558.75;4970602;28;20050;-71
2022/08/25 07:03:50;;;;;;;6.57;4.63;;;;;;;25.70;55.79;101548.03;4971485;28;20038;-71
2022/08/25 07:06:17;;;;;;;17.88;5.28;;;;;;;26.18;55.37;101548.81;4969667;28;20046;-71
2022/08/25 07:08:43;;;;;;;9.50;4.75;;;;;;;26.47;54.27;101548.94;4966800;28;20045;-71
2022/08/25 07:11:10;;;;;;;15.30;5.57;;;;;;;25.74;55.63;101547.50;4969815;28;20110;-69
2022/08/25 07:13:37;;;;;;;8.40;4.78;;;;;;;26.64;55.34;101546.06;4975473;28;20038;-70
2022/08/25 07:16:04;;;;;;;6.85;4.75;;;;;;;26.55;54.17;101551.59;4970222;28;20074;-70
2022/08/25 07:18:30;;;;;;;9.63;4.22;;;;;;;26.40;55.42;101550.66;4970534;28;20037;-70
2022/08/25 07:20:57;;;;;;;5.55;4.25;;;;;;;25.96;56.84;101545.88;4969772;28;20915;-70
2022/08/25 07:23:23;;;;;;;7.57;5.18;;;;;;;26.24;53.95;101537.97;4964285;28;20038;-70
2022/08/25 07:25:48;;;;;;;9.73;4.60;;;;;;;27.04;53.11;101539.31;4969969;28;20046;-70
2022/08/25 07:28:15;;;;;;;11.68;4.90;;;;;;;27.08;52.58;101544.25;4968981;28;20053;-70
2022/08/25 07:30:41;;;;;;;10.10;4.97;;;;;;;27.41;54.34;101545.72;4970163;28;20049;-70
2022/08/25 07:33:07;;;;;;;11.10;4.80;;;;;;;27.25;54.27;101553.13;4969097;28;20042;-70
2022/08/25 07:35:32;;;;;;;9.55;4.00;;;;;;;27.67;52.42;101545.25;4963256;28;20030;-68
2022/08/25 07:37:59;;;;;;;9.60;4.30;;;;;;;27.73;52.63;101548.09;4962593;28;20441;-70
2022/08/25 07:40:30;;;;;;;7.60;4.43;;;;;;;27.67;50.82;101542.50;4966902;28;20030;-70
2022/08/25 07:42:59;;;;;;;6.78;4.40;;;;;;;28.01;51.49;101537.19;4953007;28;22034;-69
2022/08/25 07:45:31;;;;;;;15.15;4.20;;;;;;;28.20;49.28;101543.09;4965553;28;20063;-70
2022/08/25 07:47:57;;;;;;;;;;;;;;;28.13;51.62;101543.88;4964841;28;20045;-70
2022/08/25 07:50:23;;;;;;;9.63;3.70;;;;;;;28.26;49.71;101545.03;4965327;28;19959;-70
2022/08/25 07:52:49;;;;;;;6.72;4.30;;;;;;;28.85;50.94;101548.31;4972794;28;20895;-69
2022/08/25 07:55:14;;;;;;;9.18;4.53;;;;;;;29.28;49.10;101550.13;4957431;28;20880;-69
2022/08/25 07:57:40;;;;;;;9.82;4.63;;;;;;;29.11;48.29;101546.81;4966389;28;20140;-69
2022/08/25 08:00:07;;;;;;;6.80;4.22;;;;;;;28.57;49.45;101553.81;4966262;28;20053;-70
2022/08/25 08:02:38;;;;;;;7.57;4.50;;;;;;;29.04;49.08;101555.03;4964629;28;20093;-70
2022/08/25 08:05:04;;;;;;;8.02;4.38;;;;;;;29.02;48.03;101557.16;4968447;28;20077;-70
2022/08/25 08:07:30;;;;;;;6.80;4.22;;;;;;;29.28;49.99;101555.59;4961800;28;20705;-70
2022/08/25 08:09:56;;;;;;;10.65;4.03;;;;;;;29.18;48.30;101552.38;4958895;28;20035;-69
2022/08/25 08:12:22;;;;;;;9.02;3.67;;;;;;;28.62;48.58;101551.34;4960940;28;20035;-71
2022/08/25 08:14:47;;;;;;;7.22;3.95;;;;;;;28.71;50.69;101543.78;4959795;28;20038;-71
2022/08/25 08:17:13;;;;;;;7.45;3.67;;;;;;;28.56;49.98;101543.03;4955388;28;20177;-70
2022/08/25 08:19:38;;;;;;;5.95;4.30;;;;;;;28.85;50.79;101550.22;4959565;28;20053;-70
2022/08/25 08:22:05;;;;;;;10.88;4.10;;;;;;;28.95;49.02;101544.41;4966839;28;20828;-71
2022/08/25 08:24:37;;;;;;;11.80;4.28;;;;;;;28.88;51.01;101541.59;4968159;28;20046;-70
2022/08/25 08:27:07;;;;;;;7.50;4.05;;;;;;;28.80;49.06;101539.84;4966807;28;20062;-70
2022/08/25 08:29:34;;;;;;;7.78;4.20;;;;;;;28.85;49.76;101542.81;4965791;28;20035;-70
2022/08/25 08:39:28;;;;;;;5.22;4.20;;;;;;;28.66;50.09;101527.06;4960302;28;20746;-71
2022/08/25 08:42:16;;;;;;;7.40;3.75;;;;;;;28.68;49.46;101522.22;4960651;28;20038;-70
2022/08/25 08:44:44;;;;;;;5.70;4.65;;;;;;;28.85;53.03;101515.38;4956825;28;20664;-70
2022/08/25 08:47:28;;;;;;;7.30;4.32;;;;;;;28.73;51.58;101513.41;4955673;28;20042;-70
2022/08/25 08:50:06;;;;;;;9.90;3.80;;;;;;;28.42;50.56;101513.81;4948240;28;20125;-71
2022/08/25 08:53:07;;;;;;;6.65;4.28;;;;;;;28.30;49.03;101510.69;4947327;28;20821;-70
2022/08/25 08:55:42;;;;;;;;;;;;;;;28.42;50.76;101511.06;4966295;28;20073;-71
2022/08/25 08:58:20;;;;;;;6.22;3.85;;;;;;;28.77;50.70;101499.06;4961260;28;19922;-70
2022/08/25 09:00:53;;;;;;;8.57;4.00;;;;;;;28.87;49.77;101505.06;4976227;28;20038;-71
2022/08/25 09:03:30;;;;;;;12.98;4.90;;;;;;;28.83;49.31;101498.25;4963132;28;20038;-71
2022/08/25 09:06:01;;;;;;;8.30;4.32;;;;;;;28.95;49.32;101495.81;4960347;28;20061;-71
2022/08/25 09:08:26;;;;;;;7.30;4.00;;;;;;;28.72;49.42;101496.09;4972640;28;20601;-71
2022/08/25 09:11:00;;;;;;;4.85;3.40;;;;;;;29.34;49.04;101494.34;4957321;28;20030;-71
2022/08/25 09:13:33;;;;;;;9.60;4.00;;;;;;;29.13;48.40;101490.66;4962938;28;20467;-71
2022/08/25 09:19:23;;;;;;;11.75;3.97;;;;;;;29.12;48.07;101496.34;4961463;28;20081;-70
2022/08/25 09:22:04;;;;;;;6.40;4.55;;;;;;;29.34;48.46;101488.84;4953504;28;20054;-70
2022/08/25 09:24:55;;;;;;;8.70;3.72;;;;;;;29.28;47.15;101497.91;4971229;28;21064;-71
2022/08/25 09:27:57;;;;;;;11.00;4.05;;;;;;;29.50;47.71;101496.72;4959994;28;20117;-70
2022/08/25 09:30:23;;;;;;;4.72;3.35;;;;;;;29.09;46.78;101489.34;4956579;28;20196;-71
2022/08/25 09:33:02;;;;;;;8.00;3.75;;;;;;;29.50;48.31;101482.97;4961178;28;20077;-71
2022/08/25 09:35:30;;;;;;;4.95;3.53;;;;;;;29.42;46.24;101480.44;4964780;28;20046;-70
2022/08/25 09:37:58;;;;;;;6.53;3.90;;;;;;;29.52;46.90;101477.25;4960773;28;20547;-71
2022/08/25 09:40:26;;;;;;;12.32;3.35;;;;;;;29.62;46.38;101475.00;4954005;28;20042;-71
2022/08/25 09:42:56;;;;;;;5.65;3.45;;;;;;;29.99;46.45;101475.50;4955382;28;20861;-71
2022/08/25 09:45:43;;;;;;;6.25;3.35;;;;;;;29.97;44.13;101463.84;4960417;28;20080;-70
2022/08/25 09:48:24;;;;;;;6.85;3.30;;;;;;;29.82;46.34;101462.16;4959627;28;20038;-71
2022/08/25 09:50:53;;;;;;;6.43;3.75;;;;;;;30.28;45.13;101461.38;4954238;28;20141;-70
2022/08/25 09:53:19;;;;;;;8.07;3.55;;;;;;;30.44;45.98;101463.69;4961456;28;20038;-71
2022/08/25 09:55:51;;;;;;;11.75;4.75;;;;;;;30.53;43.81;101460.72;4965247;28;20041;-71
2022/08/25 09:58:20;;;;;;;9.88;3.58;;;;;;;30.29;43.85;101451.22;4966280;28;20451;-71
2022/08/25 10:01:01;;;;;;;8.10;3.30;;;;;;;30.58;43.21;101449.91;4965822;28;20062;-70
2022/08/25 10:03:26;;;;;;;7.47;3.13;;;;;;;30.17;42.10;101449.09;4968169;28;20342;-70
2022/08/25 10:05:57;;;;;;;8.77;3.80;;;;;;;30.44;42.25;101440.81;4967242;28;20053;-70
2022/08/25 10:08:43;;;;;;;7.65;3.40;;;;;;;30.84;42.64;101451.78;4963787;28;20041;-70
2022/08/25 10:11:14;;;;;;;7.57;3.25;;;;;;;31.27;42.73;101443.78;4955516;28;20157;-70
2022/08/25 10:13:47;;;;;;;7.43;3.00;;;;;;;30.53;41.40;101450.56;4958518;28;20086;-70
2022/08/25 10:16:27;;;;;;;6.30;2.72;;;;;;;30.66;41.21;101449.66;4960860;28;20046;-71
2022/08/25 10:18:59;;;;;;;7.60;2.70;;;;;;;30.69;40.98;101441.81;4982253;28;20042;-70
2022/08/25 10:21:25;;;;;;;5.32;2.88;;;;;;;31.04;40.12;101435.19;4965120;28;20042;-70
2022/08/25 10:23:54;;;;;;;4.63;2.92;;;;;;;31.24;41.19;101432.34;4963680;28;20046;-70
2022/08/25 10:26:59;;;;;;;7.25;2.58;;;;;;;31.00;40.29;101433.94;4981207;28;20035;-70
2022/08/25 10:29:25;;;;;;;3.35;2.85;;;;;;;31.08;38.57;101433.69;4962474;28;20042;-70
2022/08/25 10:32:07;;;;;;;6.35;2.58;;;;;;;30.84;40.46;101429.75;4966173;28;20165;-70
2022/08/25 10:34:49;;;;;;;5.75;3.10;;;;;;;30.87;40.71;101421.03;4969015;28;20096;-70
2022/08/25 10:37:28;;;;;;;7.13;3.13;;;;;;;31.26;41.92;101419.19;4970798;28;20049;-71
2022/08/25 10:40:01;;;;;;;2.85;2.55;;;;;;;31.51;39.34;101413.75;4962876;28;20045;-70
2022/08/25 10:42:37;;;;;;;7.30;3.15;;;;;;;31.25;40.04;101415.56;4966715;28;20050;-71
2022/08/25 10:48:06;;;;;;;6.80;2.80;;;;;;;31.26;38.99;101408.16;4981892;28;20491;-70
2022/08/25 10:50:50;;;;;;;;;;;;;;;31.43;39.12;101399.19;4962026;28;20044;-70
2022/08/25 10:53:18;;;;;;;5.60;2.28;;;;;;;31.18;35.57;101393.56;4963353;28;19933;-70
2022/08/25 10:56:09;;;;;;;3.72;2.20;;;;;;;31.35;36.82;101399.44;4961157;28;20586;-70
2022/08/25 10:58:53;;;;;;;9.10;2.92;;;;;;;31.12;38.65;101399.09;4970986;28;20038;-70
2022/08/25 11:01:38;;;;;;;3.25;2.60;;;;;;;31.55;38.44;101387.44;4963838;28;20046;-70
2022/08/25 11:04:11;;;;;;;9.95;2.72;;;;;;;31.21;38.48;101389.53;4976821;28;20053;-70
2022/08/25 11:06:46;;;;;;;6.30;2.90;;;;;;;31.65;37.93;101382.28;4961416;28;20042;-70
2022/08/25 11:09:18;;;;;;;4.47;2.90;;;;;;;31.45;38.72;101385.16;4961747;28;20038;-70
2022/08/25 11:11:47;;;;;;;4.25;2.60;;;;;;;31.74;38.75;101378.19;4965551;28;20144;-70
2022/08/25 11:14:55;;;;;;;4.00;2.50;;;;;;;31.74;38.29;101380.94;4964478;28;20058;-71
2022/08/25 11:17:31;;;;;;;3.45;3.00;;;;;;;31.60;38.09;101368.31;4947820;28;20051;-70
2022/08/25 11:20:03;;;;;;;3.58;2.83;;;;;;;31.53;37.56;101371.13;4963566;28;20041;-70
2022/08/25 11:22:37;;;;;;;4.72;2.90;;;;;;;31.73;38.90;101373.75;4979212;28;20050;-70
2022/08/25 11:25:25;;;;;;;5.82;3.42;;;;;;;31.61;37.40;101368.09;4954726;28;20137;-70
2022/08/25 11:28:05;;;;;;;2.67;2.35;;;;;;;31.64;38.41;101367.66;4964234;28;20038;-70
2022/08/25 11:30:30;;;;;;;4.05;2.67;;;;;;;31.64;37.67;101364.88;4962693;28;20109;-70
2022/08/25 11:32:57;;;;;;;6.82;2.70;;;;;;;31.59;37.49;101364.72;4961397;28;20026;-69
2022/08/25 11:36:02;;;;;;;4.32;2.30;;;;;;;31.55;39.06;101365.38;4961935;28;20034;-69
2022/08/25 11:38:28;;;;;;;4.82;2.75;;;;;;;31.48;36.84;101350.78;4952163;28;20050;-70
2022/08/25 11:41:19;;;;;;;7.00;2.83;;;;;;;31.79;37.61;101353.53;4961962;28;20052;-70
2022/08/25 11:44:09;;;;;;;8.20;3.20;;;;;;;31.94;37.80;101355.97;4950032;28;20143;-71
2022/08/25 11:46:45;;;;;;;5.93;2.90;;;;;;;32.20;38.47;101358.47;4963014;28;20340;-70
2022/08/25 11:49:30;;;;;;;5.07;3.00;;;;;;;32.02;36.57;101350.16;4974469;28;20038;-70